Time;durP1;ratioP1;P1;durP2;ratioP2;P2;SDS_P1;SDS_P2;PMS_P1;PMS_P2;Temp;Humidity;BMP_temperature;BMP_pressure;BME280_temperature;BME280_humidity;BME280_pressure;Samples;Min_cycle;Max_cycle;Signal;HPM_P1;HPM_P2
2023/12/23 00:01:00;;;;;;;14.90;3.17;;;10.20;89.60;;;;;;5051546;28;20647;-74
2023/12/23 00:03:26;;;;;;;14.48;3.20;;;10.30;89.40;;;;;;5061916;28;20024;-80
2023/12/23 00:05:53;;;;;;;12.40;3.53;;;10.20;89.40;;;;;;5063034;28;20435;-80
2023/12/23 00:08:18;;;;;;;15.55;3.35;;;10.30;89.30;;;;;;5064454;28;20044;-74
2023/12/23 00:10:44;;;;;;;12.70;3.17;;;10.20;89.30;;;;;;5060285;28;20059;-75
2023/12/23 00:13:10;;;;;;;15.82;3.22;;;10.10;89.50;;;;;;5058149;28;20495;-86
2023/12/23 00:15:35;;;;;;;14.32;2.95;;;10.20;89.50;;;;;;5045395;28;20033;-75
2023/12/23 00:18:01;;;;;;;14.40;3.33;;;10.20;89.40;;;;;;5068219;28;20024;-77
2023/12/23 00:20:27;;;;;;;13.13;4.28;;;10.20;89.30;;;;;;5067765;28;20067;-76
2023/12/23 00:22:52;;;;;;;11.50;2.92;;;10.30;89.30;;;;;;5066109;28;20469;-75
2023/12/23 00:25:18;;;;;;;10.05;2.95;;;10.20;89.20;;;;;;5062062;28;20723;-83
2023/12/23 00:27:43;;;;;;;17.13;3.40;;;10.20;89.10;;;;;;5068711;28;20021;-76
2023/12/23 00:30:12;;;;;;;13.43;4.18;;;10.30;89.20;;;;;;5047158;28;20044;-83
2023/12/23 00:32:39;;;;;;;12.13;2.83;;;10.30;89.00;;;;;;5041604;28;20040;-80
2023/12/23 00:35:06;;;;;;;12.52;3.00;;;10.30;88.90;;;;;;5064648;28;20038;-77
2023/12/23 00:37:31;;;;;;;16.52;3.00;;;10.30;88.90;;;;;;5059393;28;20025;-76
2023/12/23 00:39:57;;;;;;;10.23;2.83;;;10.30;88.90;;;;;;5061408;28;20139;-81
2023/12/23 00:42:23;;;;;;;12.48;3.05;;;10.30;88.90;;;;;;5054159;28;20063;-75
2023/12/23 00:44:49;;;;;;;12.73;3.55;;;10.30;88.90;;;;;;5067110;28;20562;-75
2023/12/23 00:47:14;;;;;;;13.27;3.03;;;10.30;88.70;;;;;;5058881;28;20028;-76
2023/12/23 00:49:40;;;;;;;11.63;2.63;;;10.30;88.70;;;;;;5067167;28;20020;-81
2023/12/23 00:52:06;;;;;;;13.43;3.20;;;10.30;88.80;;;;;;5061112;28;20028;-78
2023/12/23 00:54:31;;;;;;;11.10;2.78;;;10.20;88.70;;;;;;5069246;28;20112;-77
2023/12/23 00:56:57;;;;;;;11.40;2.47;;;10.30;88.60;;;;;;5048296;28;20022;-75
2023/12/23 00:59:23;;;;;;;11.45;2.95;;;10.20;88.60;;;;;;5060349;28;20079;-75
2023/12/23 01:01:49;;;;;;;9.70;2.70;;;10.20;88.60;;;;;;5066269;28;20040;-75
2023/12/23 01:04:14;;;;;;;13.85;3.17;;;10.20;88.60;;;;;;5060252;28;21267;-77
2023/12/23 01:06:40;;;;;;;10.13;2.40;;;10.20;88.50;;;;;;5067330;28;20449;-76
2023/12/23 01:09:05;;;;;;;12.68;2.78;;;10.20;88.70;;;;;;5064835;28;20064;-83
2023/12/23 01:11:31;;;;;;;12.30;3.00;;;10.20;88.70;;;;;;5057891;28;20132;-80
2023/12/23 01:13:56;;;;;;;12.25;3.38;;;10.30;88.60;;;;;;5064743;28;20436;-75
2023/12/23 01:16:22;;;;;;;9.85;2.92;;;10.20;88.50;;;;;;5062552;28;20043;-75
2023/12/23 01:18:48;;;;;;;13.30;3.25;;;10.20;88.60;;;;;;5068383;28;20155;-75
2023/12/23 01:21:14;;;;;;;15.85;2.97;;;10.30;88.60;;;;;;5071496;28;20044;-79
2023/12/23 01:23:40;;;;;;;10.02;2.92;;;10.30;88.50;;;;;;5086638;28;20024;-85
2023/12/23 01:26:05;;;;;;;14.15;3.22;;;10.20;88.60;;;;;;5083029;28;20056;-80
2023/12/23 01:28:31;;;;;;;10.93;2.80;;;10.20;88.60;;;;;;5073463;28;20035;-77
2023/12/23 01:30:57;;;;;;;10.00;2.78;;;10.20;88.70;;;;;;5056162;28;20079;-77
2023/12/23 01:33:22;;;;;;;10.07;2.53;;;10.20;88.70;;;;;;5057191;28;20449;-75
2023/12/23 01:35:48;;;;;;;12.85;3.08;;;10.20;88.60;;;;;;5062765;28;20033;-75
2023/12/23 01:38:14;;;;;;;10.90;3.10;;;10.20;88.80;;;;;;5042083;28;20028;-76
2023/12/23 01:40:40;;;;;;;11.82;2.50;;;10.20;88.80;;;;;;5058121;28;20037;-75
2023/12/23 01:43:05;;;;;;;13.57;2.97;;;10.20;88.70;;;;;;5060338;28;20036;-80
2023/12/23 01:45:31;;;;;;;10.50;2.95;;;10.20;88.70;;;;;;5065657;28;20770;-74
2023/12/23 01:47:57;;;;;;;8.70;2.40;;;10.20;88.70;;;;;;5063899;28;20465;-76
2023/12/23 01:50:24;;;;;;;10.32;2.85;;;10.20;88.80;;;;;;5057712;28;20021;-73
2023/12/23 01:52:53;;;;;;;9.90;2.92;;;10.20;88.70;;;;;;5059893;28;20083;-74
2023/12/23 01:55:19;;;;;;;10.50;2.97;;;10.20;88.90;;;;;;5063031;28;20063;-74
2023/12/23 01:57:45;;;;;;;12.38;2.53;;;10.20;88.90;;;;;;5072598;28;20051;-74
2023/12/23 02:00:11;;;;;;;10.63;2.45;;;10.20;88.90;;;;;;5067191;28;20116;-75
2023/12/23 02:02:38;;;;;;;12.55;2.95;;;10.20;88.90;;;;;;5067126;28;20460;-76
2023/12/23 02:05:06;;;;;;;12.52;2.40;;;10.20;88.90;;;;;;5064076;28;20037;-86
2023/12/23 02:07:33;;;;;;;10.35;2.75;;;10.20;88.80;;;;;;5067054;28;20037;-77
2023/12/23 02:09:59;;;;;;;14.20;3.28;;;10.30;88.90;;;;;;5062930;28;20044;-75
2023/12/23 02:12:30;;;;;;;8.77;2.25;;;10.30;89.00;;;;;;5043760;28;20041;-77
2023/12/23 02:15:09;;;;;;;14.45;3.13;;;10.20;89.00;;;;;;5067671;28;20041;-75
2023/12/23 02:17:35;;;;;;;9.38;2.97;;;10.20;89.20;;;;;;5065729;28;20120;-76
2023/12/23 02:20:01;;;;;;;12.05;3.15;;;10.20;89.20;;;;;;5069771;28;20818;-75
2023/12/23 02:22:26;;;;;;;13.60;2.92;;;10.20;89.30;;;;;;5068069;28;20036;-75
2023/12/23 02:24:52;;;;;;;9.43;2.67;;;10.20;89.40;;;;;;5069909;28;20037;-75
2023/12/23 02:27:22;;;;;;;9.00;2.42;;;10.30;89.30;;;;;;5069466;28;20654;-79
2023/12/23 02:29:50;;;;;;;15.18;2.80;;;10.30;89.20;;;;;;5060262;28;20035;-76
2023/12/23 02:32:17;;;;;;;10.88;3.00;;;10.20;89.60;;;;;;5070884;28;20052;-75
2023/12/23 02:34:43;;;;;;;13.35;2.95;;;10.30;89.40;;;;;;5068914;28;20021;-79
2023/12/23 02:37:09;;;;;;;14.32;3.10;;;10.20;89.30;;;;;;5065475;28;20063;-78
2023/12/23 02:39:34;;;;;;;12.48;2.40;;;10.20;89.30;;;;;;5064857;28;20032;-76
2023/12/23 02:42:00;;;;;;;8.88;2.33;;;10.20;89.30;;;;;;5066057;28;20393;-82
2023/12/23 02:44:25;;;;;;;14.82;2.75;;;10.10;89.30;;;;;;5070063;28;20577;-75
2023/12/23 02:46:51;;;;;;;14.18;2.85;;;10.20;89.30;;;;;;5056547;28;20037;-75
2023/12/23 02:49:17;;;;;;;12.65;3.28;;;10.10;89.40;;;;;;5065071;28;20028;-76
2023/12/23 02:51:45;;;;;;;14.10;2.85;;;10.10;89.50;;;;;;5061149;28;20036;-77
2023/12/23 02:54:11;;;;;;;12.13;2.63;;;10.10;89.40;;;;;;5060750;28;20081;-76
2023/12/23 02:56:36;;;;;;;8.95;2.85;;;10.20;89.40;;;;;;5054529;28;20132;-76
2023/12/23 02:59:02;;;;;;;11.73;3.25;;;10.20;89.30;;;;;;5059568;28;20025;-75
2023/12/23 03:01:27;;;;;;;10.38;2.35;;;10.20;89.40;;;;;;5058531;28;20067;-78
2023/12/23 03:03:53;;;;;;;12.27;2.90;;;10.10;89.30;;;;;;5070560;28;20071;-76
2023/12/23 03:06:19;;;;;;;9.35;2.30;;;10.20;89.00;;;;;;5058043;28;20040;-78
2023/12/23 03:08:45;;;;;;;11.90;2.60;;;10.20;88.90;;;;;;5057560;28;20052;-82
2023/12/23 03:11:11;;;;;;;11.27;3.33;;;10.20;88.90;;;;;;5058703;28;20114;-76
2023/12/23 03:13:36;;;;;;;11.82;3.22;;;10.20;88.90;;;;;;5063221;28;20158;-76
2023/12/23 03:16:02;;;;;;;11.82;2.45;;;10.20;88.70;;;;;;5063504;28;20469;-80
2023/12/23 03:18:27;;;;;;;15.10;3.25;;;10.30;88.80;;;;;;5066123;28;20488;-77
2023/12/23 03:20:53;;;;;;;13.18;2.90;;;10.30;88.80;;;;;;5049686;28;20066;-78
2023/12/23 03:23:19;;;;;;;11.20;3.67;;;10.30;88.80;;;;;;5064256;28;20547;-75
2023/12/23 03:25:44;;;;;;;9.70;2.70;;;10.30;88.70;;;;;;5061848;28;20025;-75
2023/12/23 03:28:10;;;;;;;18.35;2.80;;;10.30;88.50;;;;;;5061394;28;20027;-76
2023/12/23 03:30:35;;;;;;;9.13;2.40;;;10.30;88.50;;;;;;5063604;28;20040;-76
2023/12/23 03:33:01;;;;;;;11.43;3.13;;;10.30;88.50;;;;;;5069384;28;20476;-78
2023/12/23 03:35:27;;;;;;;10.25;2.67;;;10.30;88.60;;;;;;5049746;28;20094;-76
2023/12/23 03:37:52;;;;;;;10.60;3.03;;;10.30;88.60;;;;;;5067094;28;20031;-75
2023/12/23 03:40:18;;;;;;;13.27;2.85;;;10.30;88.60;;;;;;5064920;28;20432;-81
2023/12/23 03:42:44;;;;;;;9.90;2.40;;;10.30;88.60;;;;;;5058293;28;20028;-77
2023/12/23 03:45:09;;;;;;;13.20;2.58;;;10.40;88.50;;;;;;5058817;28;20037;-80
2023/12/23 03:47:35;;;;;;;9.50;2.70;;;10.40;88.30;;;;;;5069192;28;20024;-77
2023/12/23 03:50:01;;;;;;;12.13;3.10;;;10.40;88.40;;;;;;5060629;28;20032;-81
2023/12/23 03:52:27;;;;;;;14.52;3.40;;;10.30;88.50;;;;;;5067764;28;20043;-78
2023/12/23 03:54:53;;;;;;;11.30;3.00;;;10.40;88.30;;;;;;5059472;28;20065;-75
2023/12/23 03:57:18;;;;;;;12.60;2.80;;;10.40;88.30;;;;;;5040795;28;20052;-79
2023/12/23 03:59:44;;;;;;;9.38;2.60;;;10.40;88.30;;;;;;5069133;28;20582;-78
2023/12/23 04:02:10;;;;;;;11.00;2.50;;;10.40;88.40;;;;;;5067206;28;20745;-76
2023/12/23 04:04:39;;;;;;;11.45;2.90;;;10.40;88.30;;;;;;5064439;28;20059;-79
2023/12/23 04:07:04;;;;;;;11.20;2.22;;;10.40;88.10;;;;;;5063369;28;20029;-76
2023/12/23 04:09:30;;;;;;;11.23;2.83;;;10.40;88.10;;;;;;5067789;28;20036;-79
2023/12/23 04:11:56;;;;;;;14.98;2.33;;;10.50;87.90;;;;;;5073858;28;20115;-80
2023/12/23 04:14:22;;;;;;;13.00;2.50;;;10.40;87.80;;;;;;5062687;28;20040;-75
2023/12/23 04:16:47;;;;;;;11.98;2.50;;;10.50;87.90;;;;;;5067717;28;20131;-81
2023/12/23 04:19:13;;;;;;;11.80;2.88;;;10.50;87.80;;;;;;5067842;28;20024;-84
2023/12/23 04:21:39;;;;;;;10.63;2.50;;;10.50;87.70;;;;;;5065881;28;20752;-76
2023/12/23 04:24:05;;;;;;;9.77;2.25;;;10.40;87.80;;;;;;5060483;28;20028;-75
2023/12/23 04:26:32;;;;;;;12.88;2.90;;;10.50;87.80;;;;;;5063861;28;20476;-76
2023/12/23 04:28:58;;;;;;;12.18;2.90;;;10.50;87.60;;;;;;5043185;28;20020;-75
2023/12/23 04:31:24;;;;;;;9.95;2.50;;;10.60;87.60;;;;;;5062919;28;20039;-76
2023/12/23 04:33:49;;;;;;;11.60;2.42;;;10.50;88.00;;;;;;5051285;28;20503;-76
2023/12/23 04:36:17;;;;;;;12.45;3.45;;;10.50;88.30;;;;;;5044678;28;20715;-75
2023/12/23 04:38:43;;;;;;;14.25;3.15;;;10.40;88.70;;;;;;5055391;28;20497;-83
2023/12/23 04:41:09;;;;;;;16.40;2.80;;;10.40;89.10;;;;;;5057305;28;20032;-76
2023/12/23 04:43:34;;;;;;;14.55;3.10;;;10.40;89.40;;;;;;5061502;28;20085;-75
2023/12/23 04:46:00;;;;;;;12.55;3.03;;;10.30;89.60;;;;;;5060698;28;20127;-82
2023/12/23 04:48:26;;;;;;;16.08;3.45;;;10.40;89.40;;;;;;5038692;28;20013;-75
2023/12/23 04:50:52;;;;;;;10.50;2.60;;;10.40;89.10;;;;;;5066564;28;20036;-76
2023/12/23 04:53:19;;;;;;;13.73;3.20;;;10.40;89.10;;;;;;5053979;28;20040;-76
2023/12/23 04:55:44;;;;;;;18.08;3.95;;;10.40;89.10;;;;;;5053925;28;20032;-77
2023/12/23 04:58:10;;;;;;;14.32;2.67;;;10.40;89.00;;;;;;5060079;28;20086;-88
2023/12/23 05:00:36;;;;;;;15.23;3.35;;;10.40;89.10;;;;;;5058035;28;20089;-75
2023/12/23 05:03:02;;;;;;;14.57;3.03;;;10.30;89.30;;;;;;5067556;28;20047;-79
2023/12/23 05:05:27;;;;;;;16.27;3.95;;;10.40;89.30;;;;;;5061876;28;20484;-81
2023/12/23 05:07:53;;;;;;;14.30;3.20;;;10.30;89.30;;;;;;5059398;28;20628;-76
2023/12/23 05:10:18;;;;;;;13.63;3.50;;;10.40;89.30;;;;;;5066353;28;20427;-76
2023/12/23 05:12:44;;;;;;;10.48;3.40;;;10.40;89.20;;;;;;5062174;28;20103;-75
2023/12/23 05:15:10;;;;;;;15.80;3.25;;;10.40;89.10;;;;;;5065944;28;20697;-76
2023/12/23 05:17:35;;;;;;;17.63;3.83;;;10.40;89.10;;;;;;5061873;28;20104;-82
2023/12/23 05:20:01;;;;;;;16.25;3.40;;;10.40;89.20;;;;;;5067540;28;20028;-76
2023/12/23 05:22:27;;;;;;;19.55;3.30;;;10.40;89.20;;;;;;5049301;28;20074;-75
2023/12/23 05:24:53;;;;;;;15.88;3.88;;;10.40;89.10;;;;;;5058804;28;20032;-78
2023/12/23 05:27:18;;;;;;;13.93;3.58;;;10.40;89.20;;;;;;5056162;28;20040;-79
2023/12/23 05:29:44;;;;;;;14.45;3.75;;;10.50;89.10;;;;;;5060080;28;20522;-82
2023/12/23 05:32:09;;;;;;;13.73;3.42;;;10.40;89.30;;;;;;5064595;28;20041;-76
2023/12/23 05:34:36;;;;;;;15.52;3.25;;;10.50;89.30;;;;;;5063271;28;20032;-76
2023/12/23 05:37:02;;;;;;;12.13;3.00;;;10.50;89.10;;;;;;5057587;28;20043;-79
2023/12/23 05:39:28;;;;;;;18.83;4.05;;;10.40;89.30;;;;;;5065056;28;20101;-76
2023/12/23 05:41:53;;;;;;;18.25;3.05;;;10.50;89.20;;;;;;5059088;28;20123;-75
2023/12/23 05:44:19;;;;;;;11.95;3.28;;;10.50;89.20;;;;;;5056452;28;20017;-76
2023/12/23 05:46:45;;;;;;;20.05;3.83;;;10.50;89.40;;;;;;5060310;28;20052;-76
2023/12/23 05:49:10;;;;;;;14.02;3.70;;;10.50;89.30;;;;;;5064449;28;20071;-81
2023/12/23 05:51:36;;;;;;;15.57;3.53;;;10.50;89.40;;;;;;5057448;28;20054;-75
2023/12/23 05:54:01;;;;;;;12.73;3.25;;;10.50;89.50;;;;;;5057070;28;20029;-76
2023/12/23 05:56:27;;;;;;;13.23;3.75;;;10.50;89.60;;;;;;5057258;28;20124;-76
2023/12/23 05:58:52;;;;;;;15.02;3.20;;;10.50;89.70;;;;;;5062704;28;20712;-76
2023/12/23 06:01:18;;;;;;;15.07;3.38;;;10.50;89.70;;;;;;5058288;28;20037;-81
2023/12/23 06:03:44;;;;;;;13.15;3.95;;;10.50;89.80;;;;;;5056309;28;20107;-76
2023/12/23 06:06:09;;;;;;;16.80;3.97;;;10.40;89.90;;;;;;5059531;28;20025;-76
2023/12/23 06:08:35;;;;;;;15.00;3.60;;;10.30;90.00;;;;;;5068173;28;20024;-83
2023/12/23 06:11:02;;;;;;;17.13;3.88;;;10.30;90.20;;;;;;5061280;28;20033;-76
2023/12/23 06:13:28;;;;;;;13.52;3.63;;;10.30;90.30;;;;;;5058714;28;20035;-78
2023/12/23 06:15:53;;;;;;;15.38;3.78;;;10.40;90.20;;;;;;5081891;28;20040;-86
2023/12/23 06:18:21;;;;;;;20.60;3.80;;;10.40;90.20;;;;;;5086487;28;20098;-78
2023/12/23 06:20:47;;;;;;;18.38;3.47;;;10.40;90.10;;;;;;5062160;28;20041;-88
2023/12/23 06:23:12;;;;;;;11.02;3.13;;;10.40;90.10;;;;;;5067757;28;20086;-76
2023/12/23 06:25:38;;;;;;;13.90;2.88;;;10.40;90.00;;;;;;5066656;28;20028;-76
2023/12/23 06:28:04;;;;;;;15.65;2.70;;;10.40;90.10;;;;;;5060355;28;20453;-78
2023/12/23 06:30:29;;;;;;;11.85;3.40;;;10.30;90.30;;;;;;5049759;28;20135;-75
2023/12/23 06:32:55;;;;;;;14.68;3.70;;;10.30;90.20;;;;;;5063281;28;20097;-75
2023/12/23 06:35:21;;;;;;;13.57;2.97;;;10.30;90.30;;;;;;5068252;28;20281;-76
2023/12/23 06:37:46;;;;;;;12.25;3.50;;;10.30;90.20;;;;;;5063706;28;20036;-75
2023/12/23 06:40:12;;;;;;;14.43;3.35;;;10.20;90.20;;;;;;5059530;28;20033;-78
2023/12/23 06:42:37;;;;;;;16.83;3.80;;;10.20;90.10;;;;;;5072410;28;20327;-75
2023/12/23 06:45:03;;;;;;;10.60;3.15;;;10.20;90.00;;;;;;5071530;28;20385;-73
2023/12/23 06:47:29;;;;;;;11.98;2.65;;;10.30;90.00;;;;;;5071223;28;20036;-82
2023/12/23 06:49:55;;;;;;;15.60;4.55;;;10.20;89.80;;;;;;5063631;28;20052;-76
2023/12/23 06:52:20;;;;;;;12.02;2.70;;;10.30;89.70;;;;;;5058579;28;20052;-80
2023/12/23 06:54:46;;;;;;;12.43;4.25;;;10.40;89.60;;;;;;5059091;28;20471;-74
2023/12/23 06:57:12;;;;;;;14.57;3.50;;;10.40;89.40;;;;;;5070445;28;20052;-78
2023/12/23 06:59:37;;;;;;;16.75;3.00;;;10.30;89.40;;;;;;5071893;28;20513;-77
2023/12/23 07:02:03;;;;;;;11.57;2.30;;;10.30;89.50;;;;;;5067029;28;20049;-73
2023/12/23 07:04:29;;;;;;;11.68;2.67;;;10.20;89.60;;;;;;5055205;28;20031;-75
2023/12/23 07:06:54;;;;;;;10.00;2.50;;;10.30;89.70;;;;;;5061277;28;20090;-77
2023/12/23 07:09:20;;;;;;;12.32;2.80;;;10.30;89.70;;;;;;5059323;28;20021;-75
2023/12/23 07:11:46;;;;;;;9.10;3.15;;;10.30;89.70;;;;;;5051774;28;20078;-74
2023/12/23 07:14:12;;;;;;;13.15;2.90;;;10.30;89.80;;;;;;5072069;28;20016;-77
2023/12/23 07:16:39;;;;;;;11.93;2.95;;;10.30;89.70;;;;;;5069405;28;20044;-75
2023/12/23 07:19:05;;;;;;;7.32;2.28;;;10.20;89.70;;;;;;5064818;28;20021;-85
2023/12/23 07:21:31;;;;;;;13.15;2.85;;;10.30;89.70;;;;;;5035200;28;20725;-76
2023/12/23 07:23:56;;;;;;;12.70;2.60;;;10.30;89.60;;;;;;5070636;28;20449;-80
2023/12/23 07:26:22;;;;;;;10.35;2.90;;;10.30;89.40;;;;;;5068662;28;20028;-79
2023/12/23 07:28:48;;;;;;;12.98;3.30;;;10.40;89.20;;;;;;5059316;28;20036;-75
2023/12/23 07:31:13;;;;;;;9.02;2.10;;;10.40;89.20;;;;;;5063112;28;20062;-81
2023/12/23 07:33:39;;;;;;;13.52;3.78;;;10.40;89.30;;;;;;5056757;28;20037;-83
2023/12/23 07:36:05;;;;;;;12.98;2.88;;;10.40;89.30;;;;;;5060364;28;20040;-74
2023/12/23 07:38:30;;;;;;;9.55;3.00;;;10.40;89.30;;;;;;5062788;28;20098;-82
2023/12/23 07:40:56;;;;;;;15.50;2.42;;;10.40;89.10;;;;;;5063625;28;20215;-74
2023/12/23 07:43:22;;;;;;;11.45;2.75;;;10.50;88.90;;;;;;5044344;28;20036;-77
2023/12/23 07:45:48;;;;;;;9.88;3.22;;;10.50;88.90;;;;;;5064527;28;20470;-73
2023/12/23 07:48:13;;;;;;;12.70;3.65;;;10.50;88.90;;;;;;5066586;28;20025;-76
2023/12/23 07:50:39;;;;;;;11.20;2.60;;;10.50;88.80;;;;;;5066884;28;20044;-78
2023/12/23 07:53:05;;;;;;;11.15;2.65;;;10.50;88.60;;;;;;5065840;28;20024;-73
2023/12/23 07:55:30;;;;;;;11.07;2.75;;;10.60;88.70;;;;;;5060101;28;20040;-78
2023/12/23 07:57:56;;;;;;;10.55;2.80;;;10.60;88.70;;;;;;5058083;28;20079;-81
2023/12/23 08:00:22;;;;;;;14.25;3.15;;;10.60;88.70;;;;;;5045717;28;20032;-75
2023/12/23 08:02:47;;;;;;;12.90;2.85;;;10.60;88.70;;;;;;5064962;28;20123;-77
2023/12/23 08:05:13;;;;;;;9.38;3.10;;;10.60;88.70;;;;;;5064778;28;20526;-72
2023/12/23 08:07:41;;;;;;;12.38;2.80;;;10.60;88.80;;;;;;5061832;28;20480;-74
2023/12/23 08:10:08;;;;;;;11.23;3.92;;;10.60;88.90;;;;;;5062269;28;20045;-77
2023/12/23 08:12:33;;;;;;;15.75;3.30;;;10.60;88.70;;;;;;5052841;28;20019;-75
2023/12/23 08:14:59;;;;;;;14.27;3.35;;;10.60;88.90;;;;;;5059683;28;20408;-75
2023/12/23 08:17:24;;;;;;;11.73;3.35;;;10.70;88.90;;;;;;5056734;28;20071;-78
2023/12/23 08:19:50;;;;;;;17.13;3.42;;;10.70;88.70;;;;;;5058076;28;20129;-75
2023/12/23 08:22:16;;;;;;;14.52;3.42;;;10.80;88.50;;;;;;5051579;28;20473;-74
2023/12/23 08:24:41;;;;;;;12.25;2.53;;;10.80;88.50;;;;;;5063387;28;20025;-73
2023/12/23 08:27:07;;;;;;;16.73;3.03;;;10.80;88.30;;;;;;5054522;28;20511;-73
2023/12/23 08:29:33;;;;;;;12.27;2.80;;;10.90;88.40;;;;;;5061447;28;20028;-79
2023/12/23 08:31:58;;;;;;;10.68;2.65;;;10.90;88.00;;;;;;5049581;28;20112;-73
2023/12/23 08:34:25;;;;;;;11.82;3.20;;;10.90;87.90;;;;;;5058907;28;20017;-78
2023/12/23 08:36:51;;;;;;;15.40;3.00;;;10.90;87.90;;;;;;5047308;28;20048;-77
2023/12/23 08:39:16;;;;;;;9.70;2.33;;;11.00;87.70;;;;;;5038573;28;20032;-77
2023/12/23 08:41:42;;;;;;;13.43;3.13;;;11.00;87.50;;;;;;5051681;28;20035;-76
2023/12/23 08:44:08;;;;;;;11.05;2.90;;;11.10;87.60;;;;;;5051745;28;20036;-80
2023/12/23 08:46:33;;;;;;;11.10;2.90;;;11.00;87.70;;;;;;5059411;28;20506;-74
2023/12/23 08:48:59;;;;;;;11.10;2.75;;;11.00;87.70;;;;;;5030340;28;20752;-76
2023/12/23 08:51:29;;;;;;;13.25;3.25;;;11.00;87.70;;;;;;5054190;28;20036;-73
2023/12/23 08:53:55;;;;;;;14.18;3.20;;;11.00;87.80;;;;;;5044897;28;20198;-73
2023/12/23 08:56:20;;;;;;;10.48;2.63;;;10.90;87.90;;;;;;5057613;28;20123;-74
2023/12/23 08:58:46;;;;;;;12.65;2.58;;;11.00;87.90;;;;;;5055835;28;20415;-74
2023/12/23 09:01:11;;;;;;;10.73;2.95;;;11.00;87.70;;;;;;5046113;28;20052;-82
2023/12/23 09:03:37;;;;;;;9.90;2.97;;;11.00;87.40;;;;;;5054236;28;20199;-73
2023/12/23 09:06:03;;;;;;;8.13;2.63;;;11.10;87.30;;;;;;5059370;28;20028;-72
2023/12/23 09:08:29;;;;;;;10.25;2.80;;;11.10;87.20;;;;;;5052096;28;20020;-75
2023/12/23 09:10:55;;;;;;;9.43;2.28;;;11.10;86.90;;;;;;5047437;28;20036;-78
2023/12/23 09:13:20;;;;;;;14.00;3.08;;;11.20;86.30;;;;;;5039434;28;20028;-74
2023/12/23 09:15:46;;;;;;;10.43;2.90;;;11.30;86.40;;;;;;5057018;28;20072;-81
2023/12/23 09:18:12;;;;;;;13.63;3.33;;;11.30;86.40;;;;;;5056874;28;20473;-75
2023/12/23 09:20:37;;;;;;;10.80;2.65;;;11.30;86.50;;;;;;5054362;28;20544;-73
2023/12/23 09:23:03;;;;;;;11.50;2.60;;;11.30;86.50;;;;;;5036751;28;20036;-75
2023/12/23 09:25:28;;;;;;;11.45;2.65;;;11.30;86.10;;;;;;5056732;28;20131;-74
2023/12/23 09:27:54;;;;;;;11.85;2.45;;;11.40;86.30;;;;;;5054325;28;20025;-78
2023/12/23 09:30:20;;;;;;;10.95;3.10;;;11.40;86.30;;;;;;5055725;28;20037;-74
2023/12/23 09:32:45;;;;;;;11.75;3.05;;;11.40;86.50;;;;;;5056440;28;20056;-76
2023/12/23 09:35:11;;;;;;;14.70;2.95;;;11.40;86.60;;;;;;5051306;28;20029;-75
2023/12/23 09:37:37;;;;;;;16.08;2.72;;;11.50;86.60;;;;;;5049960;28;20614;-74
2023/12/23 09:40:04;;;;;;;13.25;3.08;;;11.50;86.60;;;;;;5056146;28;20448;-75
2023/12/23 09:42:29;;;;;;;14.70;3.03;;;11.50;86.60;;;;;;5054712;28;20043;-78
2023/12/23 09:44:55;;;;;;;11.63;2.63;;;11.60;86.40;;;;;;5056069;28;20041;-75
2023/12/23 09:47:21;;;;;;;8.98;2.28;;;11.60;86.40;;;;;;5051522;28;20033;-76
2023/12/23 09:49:47;;;;;;;13.95;3.40;;;11.70;86.30;;;;;;5057200;28;20025;-75
2023/12/23 09:52:13;;;;;;;9.70;2.80;;;11.70;86.50;;;;;;5051779;28;20378;-75
2023/12/23 09:54:44;;;;;;;14.85;2.90;;;11.70;86.40;;;;;;5038374;28;20021;-77
2023/12/23 09:57:11;;;;;;;10.95;2.72;;;11.70;86.10;;;;;;5056545;28;20078;-75
2023/12/23 09:59:36;;;;;;;9.85;2.67;;;11.70;86.20;;;;;;5050852;28;20093;-75
2023/12/23 10:02:03;;;;;;;13.30;3.58;;;11.70;86.50;;;;;;5053117;28;20493;-77
2023/12/23 10:04:28;;;;;;;11.48;3.00;;;11.60;86.70;;;;;;5033186;28;20431;-74
2023/12/23 10:06:55;;;;;;;11.90;2.90;;;11.60;86.80;;;;;;5054374;28;20037;-74
2023/12/23 10:09:21;;;;;;;12.65;3.55;;;11.70;86.80;;;;;;5049435;28;20029;-76
2023/12/23 10:11:47;;;;;;;14.55;3.67;;;11.70;86.50;;;;;;5050537;28;20059;-76
2023/12/23 10:14:13;;;;;;;12.75;3.28;;;11.80;86.30;;;;;;5049853;28;20033;-76
2023/12/23 10:16:40;;;;;;;16.45;2.70;;;11.90;86.20;;;;;;5034620;28;20040;-75
2023/12/23 10:19:08;;;;;;;14.90;3.35;;;12.00;86.30;;;;;;5051545;28;20064;-74
2023/12/23 10:21:34;;;;;;;13.05;3.10;;;12.00;86.20;;;;;;5061782;28;20047;-77
2023/12/23 10:23:59;;;;;;;15.35;3.03;;;12.00;86.10;;;;;;5057623;28;20051;-75
2023/12/23 10:26:26;;;;;;;13.18;2.80;;;12.00;86.20;;;;;;5057135;28;20037;-76
2023/12/23 10:28:57;;;;;;;12.20;2.95;;;12.00;85.70;;;;;;5057227;28;20029;-77
2023/12/23 10:31:26;;;;;;;9.73;2.72;;;12.00;85.90;;;;;;5058835;28;20580;-73
2023/12/23 10:33:54;;;;;;;14.85;3.10;;;12.10;86.00;;;;;;5055464;28;20388;-75
2023/12/23 10:36:21;;;;;;;11.38;3.10;;;12.10;86.20;;;;;;5053214;28;20051;-73
2023/12/23 10:38:55;;;;;;;11.95;3.35;;;12.10;86.10;;;;;;5056206;28;20020;-74
2023/12/23 10:41:44;;;;;;;13.02;3.00;;;12.10;85.50;;;;;;5042780;28;20128;-72
2023/12/23 10:44:11;;;;;;;11.50;2.65;;;12.10;85.60;;;;;;5047614;28;20052;-77
2023/12/23 10:46:37;;;;;;;9.60;2.60;;;12.10;85.40;;;;;;5056880;28;20116;-74
2023/12/23 10:49:05;;;;;;;10.82;3.00;;;12.20;85.30;;;;;;5063833;28;20124;-76
2023/12/23 10:51:32;;;;;;;15.30;3.38;;;12.20;85.50;;;;;;5058948;28;20033;-76
2023/12/23 10:54:00;;;;;;;10.68;2.80;;;12.30;85.00;;;;;;5045727;28;20670;-73
2023/12/23 10:56:27;;;;;;;13.82;3.05;;;12.20;85.30;;;;;;5046914;28;20067;-74
2023/12/23 10:58:54;;;;;;;9.23;2.40;;;12.30;85.20;;;;;;5054938;28;20028;-74
2023/12/23 11:01:21;;;;;;;10.50;2.60;;;12.30;85.10;;;;;;5057294;28;20031;-73
2023/12/23 11:03:50;;;;;;;9.75;2.78;;;12.30;84.90;;;;;;5056637;28;20073;-73
2023/12/23 11:06:18;;;;;;;13.10;3.13;;;12.30;85.10;;;;;;5053172;28;20112;-74
2023/12/23 11:08:47;;;;;;;10.57;3.05;;;12.30;84.90;;;;;;5059774;28;20025;-75
2023/12/23 11:11:13;;;;;;;11.63;2.50;;;12.30;85.10;;;;;;5050346;28;20033;-75
2023/12/23 11:13:39;;;;;;;8.77;2.35;;;12.30;85.30;;;;;;5050536;28;20025;-74
2023/12/23 11:16:10;;;;;;;12.23;2.92;;;12.20;85.80;;;;;;5056950;28;20059;-76
2023/12/23 11:18:39;;;;;;;11.90;3.00;;;12.10;85.80;;;;;;5076153;28;20063;-76
2023/12/23 11:21:15;;;;;;;12.30;3.42;;;12.20;85.80;;;;;;5068993;28;21063;-76
2023/12/23 11:23:41;;;;;;;13.77;3.10;;;12.10;85.90;;;;;;5057255;28;20041;-73
2023/12/23 11:26:37;;;;;;;9.85;2.67;;;12.10;85.90;;;;;;5064775;28;20036;-73
2023/12/23 11:29:06;;;;;;;10.80;2.78;;;12.10;85.70;;;;;;5061274;28;20025;-73
2023/12/23 11:31:32;;;;;;;12.55;3.42;;;12.00;85.70;;;;;;5061406;28;20661;-73
2023/12/23 11:34:11;;;;;;;14.68;3.50;;;12.10;85.20;;;;;;5055549;28;20031;-76
2023/12/23 11:36:36;;;;;;;14.02;3.45;;;12.20;85.30;;;;;;5054592;28;20025;-74
2023/12/23 11:39:02;;;;;;;14.02;3.38;;;12.20;84.80;;;;;;5056897;28;20097;-73
2023/12/23 11:41:29;;;;;;;12.40;3.30;;;12.30;84.40;;;;;;5052148;28;20021;-78
2023/12/23 11:43:55;;;;;;;10.68;2.75;;;12.30;84.50;;;;;;5055676;28;20032;-75
2023/12/23 11:46:22;;;;;;;12.35;3.00;;;12.30;84.50;;;;;;5062310;28;20572;-74
2023/12/23 11:48:48;;;;;;;11.07;3.03;;;12.30;84.50;;;;;;5047079;28;20029;-78
2023/12/23 11:51:14;;;;;;;11.75;2.90;;;12.30;84.60;;;;;;5060749;28;20197;-78
2023/12/23 11:53:40;;;;;;;14.25;3.13;;;12.30;84.60;;;;;;5057108;28;20032;-74
2023/12/23 11:56:07;;;;;;;13.30;2.97;;;12.20;84.80;;;;;;5057096;28;20036;-77
2023/12/23 11:58:33;;;;;;;11.18;2.92;;;12.20;84.80;;;;;;5055376;28;20031;-74
2023/12/23 12:00:59;;;;;;;10.98;2.47;;;12.20;84.20;;;;;;5049646;28;20033;-73
2023/12/23 12:03:26;;;;;;;10.40;2.85;;;12.20;84.10;;;;;;5045722;28;20036;-73
2023/12/23 12:05:56;;;;;;;9.77;2.42;;;12.20;84.10;;;;;;5034150;28;20050;-75
2023/12/23 12:08:22;;;;;;;10.00;2.85;;;12.20;83.40;;;;;;5045042;28;20108;-75
2023/12/23 12:10:47;;;;;;;12.77;2.40;;;12.20;83.60;;;;;;5046506;28;20128;-76
2023/12/23 12:13:13;;;;;;;11.88;2.30;;;12.20;83.70;;;;;;5051021;28;20048;-74
2023/12/23 12:15:41;;;;;;;10.18;2.65;;;12.30;82.90;;;;;;5032489;28;20053;-74
2023/12/23 12:18:07;;;;;;;8.18;2.78;;;12.40;82.50;;;;;;5047282;28;20100;-74
2023/12/23 12:20:33;;;;;;;8.93;2.25;;;12.50;82.40;;;;;;5050256;28;20036;-74
2023/12/23 12:23:01;;;;;;;10.70;2.65;;;12.60;82.30;;;;;;5053617;28;20037;-77
2023/12/23 12:25:28;;;;;;;9.93;2.13;;;12.70;82.20;;;;;;5058002;28;20071;-73
2023/12/23 12:27:54;;;;;;;7.75;2.08;;;12.70;81.30;;;;;;5059279;28;20424;-72
2023/12/23 12:30:20;;;;;;;11.13;2.53;;;12.80;81.20;;;;;;5050370;28;20040;-76
2023/12/23 12:32:46;;;;;;;12.90;3.00;;;12.80;81.30;;;;;;5046769;28;20051;-74